createdAt,value
2022-08-27T00:02:11.289Z,97801.69
2022-08-27T00:04:38.953Z,97792.84
2022-08-27T00:07:09.206Z,97808.53
2022-08-27T00:09:36.416Z,97807.97
2022-08-27T00:12:03.744Z,97805.25
2022-08-27T00:14:30.893Z,97809.41
2022-08-27T00:16:57.925Z,97784.06
2022-08-27T00:19:25.762Z,97801.16
2022-08-27T00:21:52.524Z,97811.03
2022-08-27T00:24:19.398Z,97800.31
2022-08-27T00:26:46.202Z,97796.47
2022-08-27T00:29:13.185Z,97797.88
2022-08-27T00:31:39.966Z,97805.88
2022-08-27T00:34:09.325Z,97810.50
2022-08-27T00:36:42.940Z,97792.09
2022-08-27T00:39:09.875Z,97804.75
2022-08-27T00:41:39.242Z,97812.72
2022-08-27T00:44:07.353Z,97785.19
2022-08-27T00:46:41.932Z,97795.38
2022-08-27T00:49:16.181Z,97815.44
2022-08-27T00:51:44.345Z,97783.84
2022-08-27T00:54:17.336Z,97783.84
2022-08-27T00:56:51.455Z,97802.78
2022-08-27T00:59:21.341Z,97814.00
2022-08-27T01:02:11.195Z,97804.09
2022-08-27T01:04:40.642Z,97804.66
2022-08-27T01:07:09.907Z,97815.06
2022-08-27T01:09:39.801Z,97815.63
2022-08-27T01:12:06.694Z,97792.28
2022-08-27T01:14:34.799Z,97815.66
2022-08-27T01:17:03.521Z,97812.34
2022-08-27T01:19:38.566Z,97800.81
2022-08-27T01:22:23.366Z,97804.66
2022-08-27T01:24:55.383Z,97788.69
2022-08-27T01:27:26.396Z,97787.34
2022-08-27T01:29:54.664Z,97802.41
2022-08-27T01:32:26.192Z,97796.38
2022-08-27T01:34:53.257Z,97786.78
2022-08-27T01:37:23.640Z,97797.19
2022-08-27T01:39:57.033Z,97793.88
2022-08-27T01:42:33.716Z,97794.72
2022-08-27T01:45:14.377Z,97774.41
2022-08-27T01:47:41.325Z,97787.63
2022-08-27T01:50:32.046Z,97796.97
2022-08-27T01:53:06.958Z,97792.81
2022-08-27T01:55:34.042Z,97766.72
2022-08-27T01:58:02.665Z,97787.63
2022-08-27T02:00:36.330Z,97797.53
2022-08-27T02:03:04.919Z,97789.31
2022-08-27T02:05:44.565Z,97797.56
2022-08-27T02:08:13.147Z,97791.81
2022-08-27T02:10:42.908Z,97798.13
2022-08-27T02:13:09.994Z,97791.53
2022-08-27T02:15:42.413Z,97792.38
2022-08-27T02:18:11.365Z,97795.13
2022-08-27T02:20:38.306Z,97783.31
2022-08-27T02:23:05.976Z,97796.50
2022-08-27T02:25:32.991Z,97767.63
2022-08-27T02:28:00.416Z,97777.84
2022-08-27T02:30:36.229Z,97801.47
2022-08-27T02:33:05.303Z,97808.09
2022-08-27T02:35:34.887Z,97787.44
2022-08-27T02:38:04.872Z,97807.81
2022-08-27T02:40:31.852Z,97799.81
2022-08-27T02:43:01.799Z,97779.19
2022-08-27T02:45:35.521Z,97800.34
2022-08-27T02:48:02.647Z,97789.91
2022-08-27T02:50:30.710Z,97790.19
2022-08-27T02:52:57.955Z,97782.47
2022-08-27T02:55:24.996Z,97781.94
2022-08-27T02:57:51.746Z,97789.09
2022-08-27T03:00:20.937Z,97786.31
2022-08-27T03:02:48.427Z,97762.38
2022-08-27T03:05:17.785Z,97787.44
2022-08-27T03:07:45.438Z,97788.25
2022-08-27T03:10:15.437Z,97783.03
2022-08-27T03:12:42.374Z,97741.47
2022-08-27T03:15:12.557Z,97791.00
2022-08-27T03:18:03.307Z,97792.66
2022-08-27T03:20:30.485Z,97794.28
2022-08-27T03:22:57.300Z,97807.22
2022-08-27T03:25:24.111Z,97795.66
2022-08-27T03:27:51.063Z,97798.94
2022-08-27T03:30:21.437Z,97803.63
2022-08-27T03:32:48.930Z,97786.53
2022-08-27T03:35:16.144Z,97792.59
2022-08-27T03:37:44.102Z,97794.78
2022-08-27T03:40:13.474Z,97793.97
2022-08-27T03:42:42.334Z,97805.00
2022-08-27T03:45:11.209Z,97806.06
2022-08-27T03:47:38.130Z,97808.00
2022-08-27T03:50:08.850Z,97797.25
2022-08-27T03:52:36.339Z,97815.41
2022-08-27T03:55:05.001Z,97803.91
2022-08-27T03:57:34.868Z,97786.75
2022-08-27T04:00:01.670Z,97812.94
2022-08-27T04:02:28.569Z,97793.09
2022-08-27T04:04:57.727Z,97796.69
2022-08-27T04:07:24.507Z,97799.41
2022-08-27T04:09:51.570Z,97792.81
2022-08-27T04:12:18.300Z,97823.13
2022-08-27T04:14:46.174Z,97813.97
2022-08-27T04:17:13.395Z,97826.41
2022-08-27T04:19:40.144Z,97817.84
2022-08-27T04:22:09.905Z,97831.66
2022-08-27T04:24:38.070Z,97826.72
2022-08-27T04:27:06.702Z,97829.47
2022-08-27T04:29:35.922Z,97804.72
2022-08-27T04:32:02.982Z,97813.81
2022-08-27T04:34:30.730Z,97830.59
2022-08-27T04:36:57.881Z,97825.66
2022-08-27T04:39:28.494Z,97842.72
2022-08-27T04:41:59.506Z,97839.69
2022-08-27T04:44:32.432Z,97819.88
2022-08-27T04:47:06.407Z,97838.84
2022-08-27T04:49:34.187Z,97841.34
2022-08-27T04:52:00.988Z,97821.53
2022-08-27T04:54:32.779Z,97840.50
2022-08-27T04:57:05.212Z,97839.69
2022-08-27T04:59:33.253Z,97834.75
2022-08-27T05:02:04.598Z,97841.06
2022-08-27T05:04:35.784Z,97842.47
2022-08-27T05:07:04.980Z,97855.38
2022-08-27T05:09:31.724Z,97820.69
2022-08-27T05:11:58.696Z,97811.34
2022-08-27T05:14:30.518Z,97846.59
2022-08-27T05:16:58.410Z,97839.72
2022-08-27T05:19:25.211Z,97858.72
2022-08-27T05:21:58.787Z,97854.34
2022-08-27T05:24:34.333Z,97849.38
2022-08-27T05:27:00.938Z,97831.75
2022-08-27T05:29:33.788Z,97846.34
2022-08-27T05:32:00.469Z,97858.75
2022-08-27T05:34:28.075Z,97863.38
2022-08-27T05:36:56.245Z,97833.13
2022-08-27T05:39:23.143Z,97823.75
2022-08-27T05:41:49.776Z,97851.81
2022-08-27T05:44:40.687Z,97867.47
2022-08-27T05:47:04.680Z,97831.44
2022-08-27T05:49:39.618Z,97866.38
2022-08-27T05:52:09.586Z,97875.78
2022-08-27T05:54:36.260Z,97864.75
2022-08-27T05:57:03.223Z,97871.34
2022-08-27T05:59:48.502Z,97874.06
2022-08-27T06:02:15.273Z,97855.66
2022-08-27T06:04:42.023Z,97867.19
2022-08-27T06:07:11.381Z,97870.19
2022-08-27T06:09:39.227Z,97858.09
2022-08-27T06:12:08.089Z,97857.78
2022-08-27T06:14:36.366Z,97873.41
2022-08-27T06:17:03.896Z,97879.44
2022-08-27T06:19:30.741Z,97887.13
2022-08-27T06:22:00.719Z,97882.16
2022-08-27T06:24:39.802Z,97904.16
2022-08-27T06:27:06.593Z,97897.50
2022-08-27T06:29:35.937Z,97903.31
2022-08-27T06:32:05.271Z,97906.31
2022-08-27T06:34:32.009Z,97893.91
2022-08-27T06:36:58.759Z,97888.34
2022-08-27T06:39:31.009Z,97907.56
2022-08-27T06:41:59.013Z,97920.75
2022-08-27T06:44:25.908Z,97919.31
2022-08-27T06:46:52.790Z,97900.00
2022-08-27T06:49:19.499Z,97927.81
2022-08-27T06:51:48.599Z,97917.56
2022-08-27T06:54:17.434Z,97932.50
2022-08-27T06:56:45.732Z,97939.34
2022-08-27T06:59:16.084Z,97922.47
2022-08-27T07:01:49.493Z,97930.41
2022-08-27T07:04:46.857Z,97943.41
2022-08-27T07:07:14.901Z,97903.16
2022-08-27T07:10:02.652Z,97919.81
2022-08-27T07:12:32.371Z,97888.13
2022-08-27T07:15:01.195Z,97941.63
2022-08-27T07:17:28.214Z,97935.09
2022-08-27T07:19:57.052Z,97930.44
2022-08-27T07:22:23.738Z,97957.69
2022-08-27T07:24:52.707Z,97949.09
2022-08-27T07:27:21.683Z,97954.06
2022-08-27T07:29:50.498Z,97948.44
2022-08-27T07:32:18.503Z,97943.78
2022-08-27T07:34:45.208Z,97961.66
2022-08-27T07:37:11.850Z,97961.81
2022-08-27T07:39:38.559Z,97948.97
2022-08-27T07:42:28.633Z,97964.84
2022-08-27T07:45:02.302Z,97966.56
2022-08-27T07:47:29.052Z,97955.84
2022-08-27T07:49:55.715Z,97947.88
2022-08-27T07:52:26.312Z,97951.97
2022-08-27T07:54:53.505Z,97960.59
2022-08-27T07:57:20.192Z,97952.25
2022-08-27T07:59:50.484Z,97943.41
2022-08-27T08:02:17.248Z,97927.88
2022-08-27T08:04:50.967Z,97935.34
2022-08-27T08:07:17.881Z,97941.38
2022-08-27T08:09:44.568Z,97950.75
2022-08-27T08:12:11.174Z,97956.94
2022-08-27T08:14:38.266Z,97953.41
2022-08-27T08:17:08.640Z,97957.53
2022-08-27T08:19:38.921Z,97958.09
2022-08-27T08:22:06.144Z,97944.63
2022-08-27T08:24:34.281Z,97962.06
2022-08-27T08:27:07.182Z,97952.38
2022-08-27T08:29:35.431Z,97941.38
2022-08-27T08:32:02.142Z,97954.03
2022-08-27T08:34:29.500Z,97955.25
2022-08-27T08:36:56.142Z,97951.66
2022-08-27T08:39:23.932Z,97975.59
2022-08-27T08:42:00.071Z,97969.19
2022-08-27T08:44:37.926Z,97970.47
2022-08-27T08:47:12.099Z,97964.09
2022-08-27T08:49:46.617Z,97976.69
2022-08-27T08:52:30.859Z,97968.50
2022-08-27T08:55:05.524Z,97959.28
2022-08-27T08:57:39.374Z,97953.09
2022-08-27T09:00:14.286Z,97970.66
2022-08-27T09:02:54.604Z,97955.25
2022-08-27T09:05:27.223Z,97951.25
2022-08-27T09:11:30.819Z,97972.28
2022-08-27T09:14:29.590Z,97975.03
2022-08-27T09:17:01.301Z,97977.22
2022-08-27T09:19:31.113Z,97965.09
2022-08-27T09:22:28.539Z,97966.84
2022-08-27T09:25:23.227Z,97969.41
2022-08-27T09:27:55.749Z,97955.69
2022-08-27T09:30:30.299Z,97973.13
2022-08-27T09:33:00.731Z,97952.78
2022-08-27T09:35:36.368Z,97955.13
2022-08-27T09:38:05.594Z,97955.16
2022-08-27T09:40:42.018Z,97973.50
2022-08-27T09:43:24.483Z,97973.28
2022-08-27T09:46:18.867Z,97964.34
2022-08-27T09:48:45.613Z,97970.13
2022-08-27T09:51:31.960Z,97952.31
2022-08-27T09:54:00.637Z,97932.09
2022-08-27T09:56:33.200Z,97968.03
2022-08-27T09:59:13.657Z,97968.22
2022-08-27T10:02:04.271Z,97960.78
2022-08-27T10:04:51.492Z,97941.25
2022-08-27T10:07:53.069Z,97953.38
2022-08-27T10:10:46.072Z,97971.38
2022-08-27T10:13:21.914Z,97960.50
2022-08-27T10:15:58.154Z,97941.16
2022-08-27T10:18:39.237Z,97976.31
2022-08-27T10:21:25.566Z,97957.38
2022-08-27T10:24:12.534Z,97953.97
2022-08-27T10:27:10.050Z,97967.16
2022-08-27T10:29:50.701Z,97979.34
2022-08-27T10:32:34.394Z,97974.09
2022-08-27T10:35:23.485Z,97974.03
2022-08-27T10:38:11.743Z,97972.06
2022-08-27T10:41:23.707Z,97970.03
2022-08-27T10:44:09.997Z,97940.31
2022-08-27T10:47:04.994Z,97964.69
2022-08-27T10:49:58.394Z,97962.09
2022-08-27T10:52:55.729Z,97967.13
2022-08-27T10:55:33.507Z,97969.47
2022-08-27T10:58:15.798Z,97959.72
2022-08-27T11:01:07.291Z,97958.81
2022-08-27T11:03:49.881Z,97955.06
2022-08-27T11:06:25.498Z,97950.50
2022-08-27T11:09:03.996Z,97939.38
2022-08-27T11:12:12.870Z,97944.31
2022-08-27T11:15:18.112Z,97955.50
2022-08-27T11:18:05.010Z,97949.56
2022-08-27T11:20:48.560Z,97957.38
2022-08-27T11:23:25.187Z,97926.78
2022-08-27T11:25:58.368Z,97947.22
2022-08-27T11:28:46.493Z,97942.81
2022-08-27T11:31:33.360Z,97943.47
2022-08-27T11:34:18.258Z,97943.34
2022-08-27T11:36:54.159Z,97935.06
2022-08-27T11:39:36.612Z,97925.59
2022-08-27T11:42:35.012Z,97926.72
2022-08-27T11:45:16.634Z,97932.13
2022-08-27T11:48:29.129Z,97918.75
2022-08-27T11:51:15.855Z,97924.19
2022-08-27T11:53:59.858Z,97927.25
2022-08-27T11:56:36.934Z,97931.56
2022-08-27T11:59:22.433Z,97923.38
2022-08-27T12:01:52.768Z,97919.63
2022-08-27T12:04:31.633Z,97925.94
2022-08-27T12:07:04.006Z,97922.44
2022-08-27T12:09:56.416Z,97928.66
2022-08-27T12:12:39.620Z,97895.56
2022-08-27T12:15:33.130Z,97908.09
2022-08-27T12:18:21.775Z,97916.31
2022-08-27T12:21:26.089Z,97914.03
2022-08-27T12:24:31.487Z,97904.00
2022-08-27T12:27:01.835Z,97893.47
2022-08-27T12:29:50.424Z,97907.56
2022-08-27T12:32:37.212Z,97894.38
2022-08-27T12:35:10.952Z,97905.69
2022-08-27T12:37:49.728Z,97890.78
2022-08-27T12:40:25.475Z,97895.22
2022-08-27T12:43:07.471Z,97885.19
2022-08-27T12:45:45.100Z,97869.44
2022-08-27T12:48:12.364Z,97843.28
2022-08-27T12:50:42.242Z,97881.69
2022-08-27T12:54:09.827Z,97882.50
2022-08-27T12:56:53.181Z,97876.72
2022-08-27T12:59:28.958Z,97874.47
2022-08-27T13:01:58.607Z,97874.44
2022-08-27T13:04:31.012Z,97873.66
2022-08-27T13:06:58.307Z,97848.28
2022-08-27T13:09:31.985Z,97842.97
2022-08-27T13:12:00.588Z,97850.91
2022-08-27T13:14:36.124Z,97859.16
2022-08-27T13:17:09.068Z,97869.66
2022-08-27T13:19:44.532Z,97854.28
2022-08-27T13:22:11.293Z,97829.91
2022-08-27T13:24:50.450Z,97856.13
2022-08-27T13:27:30.469Z,97858.78
2022-08-27T13:30:03.062Z,97850.47
2022-08-27T13:32:31.091Z,97853.13
2022-08-27T13:35:00.105Z,97839.50
2022-08-27T13:37:46.726Z,97856.19
2022-08-27T13:40:34.867Z,97868.38
2022-08-27T13:43:13.825Z,97853.59
2022-08-27T13:45:42.406Z,97855.00
2022-08-27T13:48:12.640Z,97857.13
2022-08-27T13:50:49.976Z,97847.03
2022-08-27T13:53:42.743Z,97860.28
2022-08-27T13:56:10.996Z,97861.13
2022-08-27T13:58:37.668Z,97853.13
2022-08-27T14:01:14.045Z,97851.84
2022-08-27T14:04:08.678Z,97854.94
2022-08-27T14:06:43.365Z,97867.31
2022-08-27T14:09:28.715Z,97857.97
2022-08-27T14:12:04.487Z,97843.75
2022-08-27T14:14:38.232Z,97859.53
2022-08-27T14:17:09.070Z,97842.97
2022-08-27T14:19:37.124Z,97860.16
2022-08-27T14:22:04.742Z,97858.41
2022-08-27T14:24:31.403Z,97829.03
2022-08-27T14:27:08.458Z,97848.09
2022-08-27T14:29:36.110Z,97838.59
2022-08-27T14:32:07.691Z,97845.16
2022-08-27T14:34:35.344Z,97861.91
2022-08-27T14:37:02.285Z,97821.88
2022-08-27T14:39:29.137Z,97863.19
2022-08-27T14:41:58.109Z,97822.88
2022-08-27T14:44:27.304Z,97861.53
2022-08-27T14:47:00.279Z,97864.84
2022-08-27T14:49:35.133Z,97854.84
2022-08-27T14:52:03.550Z,97844.03
2022-08-27T14:54:33.352Z,97856.34
2022-08-27T14:57:03.035Z,97855.34
2022-08-27T14:59:30.192Z,97870.47
2022-08-27T15:02:01.878Z,97872.59
2022-08-27T15:04:29.635Z,97870.13
2022-08-27T15:06:56.654Z,97863.72
2022-08-27T15:09:23.401Z,97853.19
2022-08-27T15:11:53.077Z,97884.22
2022-08-27T15:14:32.225Z,97888.81
2022-08-27T15:17:00.744Z,97889.13
2022-08-27T15:19:29.625Z,97863.53
2022-08-27T15:22:22.243Z,97864.16
2022-08-27T15:25:03.170Z,97864.78
2022-08-27T15:27:38.810Z,97856.03
2022-08-27T15:30:27.366Z,97881.63
2022-08-27T15:32:54.769Z,97869.28
2022-08-27T15:35:26.630Z,97855.47
2022-08-27T15:37:55.704Z,97882.69
2022-08-27T15:40:24.219Z,97871.03
2022-08-27T15:43:00.050Z,97874.47
2022-08-27T15:45:28.720Z,97867.06
2022-08-27T15:47:56.467Z,97847.41
2022-08-27T15:50:23.467Z,97854.97
2022-08-27T15:52:56.287Z,97889.44
2022-08-27T15:55:29.317Z,97894.44
2022-08-27T15:57:56.248Z,97861.09
2022-08-27T16:00:26.713Z,97881.78
2022-08-27T16:02:54.693Z,97884.34
2022-08-27T16:05:22.488Z,97877.34
2022-08-27T16:07:49.700Z,97879.66
2022-08-27T16:10:20.311Z,97888.63
2022-08-27T16:12:46.969Z,97877.81
2022-08-27T16:15:17.233Z,97891.88
2022-08-27T16:17:45.223Z,97888.41
2022-08-27T16:20:15.305Z,97860.09
2022-08-27T16:22:43.950Z,97891.22
2022-08-27T16:25:15.331Z,97882.22
2022-08-27T16:27:45.119Z,97884.59
2022-08-27T16:30:12.874Z,97892.91
2022-08-27T16:32:40.753Z,97893.22
2022-08-27T16:35:08.925Z,97895.09
2022-08-27T16:37:35.643Z,97868.28
2022-08-27T16:40:02.554Z,97891.91
2022-08-27T16:42:29.362Z,97897.25
2022-08-27T16:44:57.191Z,97866.75
2022-08-27T16:47:23.821Z,97887.50
2022-08-27T16:50:09.192Z,97871.25
2022-08-27T16:52:37.514Z,97892.31
2022-08-27T16:55:04.462Z,97918.31
2022-08-27T16:57:31.215Z,97907.44
2022-08-27T16:59:58.177Z,97899.00
2022-08-27T17:02:30.665Z,97913.16
2022-08-27T17:05:17.879Z,97894.97
2022-08-27T17:07:51.202Z,97921.97
2022-08-27T17:10:18.907Z,97898.50
2022-08-27T17:12:48.066Z,97930.78
2022-08-27T17:15:17.120Z,97921.72
2022-08-27T17:17:45.220Z,97932.09
2022-08-27T17:20:12.918Z,97926.59
2022-08-27T17:22:42.154Z,97918.78
2022-08-27T17:25:09.419Z,97893.25
2022-08-27T17:27:36.156Z,97906.28
2022-08-27T17:30:05.089Z,97926.72
2022-08-27T17:32:40.445Z,97934.53
2022-08-27T17:35:08.468Z,97938.78
2022-08-27T17:37:36.965Z,97924.34
2022-08-27T17:40:06.353Z,97932.75
2022-08-27T17:42:33.448Z,97922.59
2022-08-27T17:45:01.308Z,97927.38
2022-08-27T17:47:28.056Z,97941.22
2022-08-27T17:49:56.260Z,97945.25
2022-08-27T17:52:23.077Z,97947.03
2022-08-27T17:54:57.439Z,97942.69
2022-08-27T17:57:40.237Z,97942.22
2022-08-27T18:00:13.115Z,97956.44
2022-08-27T18:03:01.399Z,97963.16
2022-08-27T18:05:28.433Z,97970.78
2022-08-27T18:07:57.091Z,97956.00
2022-08-27T18:10:26.378Z,97969.34
2022-08-27T18:12:55.574Z,97973.22
2022-08-27T18:15:26.204Z,97979.84
2022-08-27T18:17:54.080Z,97975.50
2022-08-27T18:20:24.468Z,97959.63
2022-08-27T18:22:52.360Z,97987.22
2022-08-27T18:25:36.178Z,97989.13
2022-08-27T18:28:10.268Z,97980.63
2022-08-27T18:30:40.186Z,97963.94
2022-08-27T18:33:08.020Z,97999.13
2022-08-27T18:35:35.665Z,98000.78
2022-08-27T18:38:04.000Z,97993.38
2022-08-27T18:40:37.009Z,97999.97
2022-08-27T18:43:05.767Z,98009.13
2022-08-27T18:45:34.758Z,97991.50
2022-08-27T18:48:02.768Z,98011.59
2022-08-27T18:50:30.055Z,97984.38
2022-08-27T18:52:57.314Z,98009.97
2022-08-27T18:55:28.155Z,97984.88
2022-08-27T18:57:57.443Z,97992.72
2022-08-27T19:00:25.849Z,97996.31
2022-08-27T19:02:53.588Z,98004.09
2022-08-27T19:05:26.652Z,98018.47
2022-08-27T19:07:54.310Z,98008.66
2022-08-27T19:10:21.657Z,98019.63
2022-08-27T19:12:48.407Z,98018.31
2022-08-27T19:15:15.416Z,97997.56
2022-08-27T19:17:45.590Z,98019.88
2022-08-27T19:20:12.634Z,98012.88
2022-08-27T19:22:39.256Z,98026.41
2022-08-27T19:25:07.536Z,98000.56
2022-08-27T19:27:36.771Z,98049.09
2022-08-27T19:30:05.277Z,98028.47
2022-08-27T19:32:32.071Z,98030.75
2022-08-27T19:34:58.973Z,98052.25
2022-08-27T19:37:30.416Z,98056.00
2022-08-27T19:39:57.474Z,98041.22
2022-08-27T19:42:26.970Z,98036.00
2022-08-27T19:44:53.685Z,98022.00
2022-08-27T19:47:26.010Z,98039.38
2022-08-27T19:49:58.777Z,98020.91
2022-08-27T19:52:25.572Z,98051.28
2022-08-27T19:55:12.748Z,98035.84
2022-08-27T19:57:44.199Z,98040.31
2022-08-27T20:00:13.432Z,98050.25
2022-08-27T20:02:41.113Z,98078.09
2022-08-27T20:05:18.022Z,98063.28
2022-08-27T20:07:57.143Z,98071.81
2022-08-27T20:10:36.178Z,98074.31
2022-08-27T20:13:04.116Z,98047.88
2022-08-27T20:15:33.225Z,98072.66
2022-08-27T20:18:05.155Z,98060.56
2022-08-27T20:20:32.808Z,98064.38
2022-08-27T20:23:03.282Z,98072.97
2022-08-27T20:25:30.958Z,98072.66
2022-08-27T20:27:58.695Z,98031.13
2022-08-27T20:30:30.250Z,98074.34
2022-08-27T20:32:57.991Z,98070.47
2022-08-27T20:35:25.482Z,98063.03
2022-08-27T20:37:52.524Z,98061.69
2022-08-27T20:40:44.540Z,98074.09
2022-08-27T20:43:12.256Z,98081.25
2022-08-27T20:45:40.083Z,98073.00
2022-08-27T20:48:07.208Z,98082.91
2022-08-27T20:50:43.632Z,98057.81
2022-08-27T20:53:10.293Z,98062.50
2022-08-27T20:55:37.190Z,98075.78
2022-08-27T20:58:22.458Z,98041.84
2022-08-27T21:00:53.270Z,98049.88
2022-08-27T21:03:20.102Z,98079.63
2022-08-27T21:05:49.987Z,98068.88
2022-08-27T21:08:19.617Z,98085.94
2022-08-27T21:10:50.955Z,98089.56
2022-08-27T21:13:19.138Z,98049.03
2022-08-27T21:15:45.949Z,98066.94
2022-08-27T21:18:13.142Z,98065.00
2022-08-27T21:20:40.670Z,98076.88
2022-08-27T21:23:08.591Z,98057.59
2022-08-27T21:25:35.217Z,98072.72
2022-08-27T21:28:04.893Z,98038.31
2022-08-27T21:30:31.922Z,98071.91
2022-08-27T21:33:01.079Z,98069.16
2022-08-27T21:35:30.510Z,98073.28
2022-08-27T21:37:59.327Z,98063.66
2022-08-27T21:40:26.545Z,98057.03
2022-08-27T21:42:55.821Z,98071.34
2022-08-27T21:45:23.144Z,98069.72
2022-08-27T21:47:51.888Z,98070.00
2022-08-27T21:50:19.935Z,98071.38
2022-08-27T21:52:46.641Z,98061.75
2022-08-27T21:55:13.833Z,98070.81
2022-08-27T21:57:40.989Z,98074.69
2022-08-27T22:00:39.173Z,98041.63
2022-08-27T22:03:10.139Z,98071.94
2022-08-27T22:05:39.527Z,98069.72
2022-08-27T22:08:06.628Z,98074.16
2022-08-27T22:10:34.265Z,98064.78
2022-08-27T22:13:01.274Z,98030.31
2022-08-27T22:15:28.089Z,98053.47
2022-08-27T22:17:54.758Z,98038.56
2022-08-27T22:20:23.015Z,98069.75
2022-08-27T22:22:49.809Z,98074.97
2022-08-27T22:25:16.676Z,98067.53
2022-08-27T22:27:43.445Z,98051.78
2022-08-27T22:30:11.540Z,98060.34
2022-08-27T22:32:38.776Z,98062.53
2022-08-27T22:35:07.969Z,98061.47
2022-08-27T22:37:34.678Z,98046.00
2022-08-27T22:40:01.462Z,98054.84
2022-08-27T22:42:28.903Z,98056.50
2022-08-27T22:44:55.653Z,98055.94
2022-08-27T22:47:23.801Z,98071.09
2022-08-27T22:49:52.895Z,98030.56
2022-08-27T22:52:28.064Z,98081.28
2022-08-27T22:54:55.065Z,98052.88
2022-08-27T22:57:21.857Z,98069.44
2022-08-27T22:59:48.888Z,98072.47
2022-08-27T23:02:15.803Z,98058.72
2022-08-27T23:04:54.717Z,98084.59
2022-08-27T23:07:24.270Z,98057.59
2022-08-27T23:09:51.130Z,98076.91
2022-08-27T23:12:19.969Z,98070.00
2022-08-27T23:14:46.849Z,98076.63
2022-08-27T23:17:16.180Z,98058.72
2022-08-27T23:19:43.114Z,98062.00
2022-08-27T23:22:09.920Z,98067.25
2022-08-27T23:24:57.794Z,98074.41
2022-08-27T23:27:30.743Z,98063.13
2022-08-27T23:29:59.952Z,98067.53
2022-08-27T23:32:27.923Z,98063.09
2022-08-27T23:34:58.803Z,98060.34
2022-08-27T23:37:26.619Z,98050.44
2022-08-27T23:39:53.775Z,98047.41
2022-08-27T23:42:20.461Z,98053.19
2022-08-27T23:44:48.758Z,98054.84
2022-08-27T23:47:16.546Z,98062.00
2022-08-27T23:49:44.036Z,98043.84
2022-08-27T23:52:12.610Z,98048.22
2022-08-27T23:54:39.653Z,98053.19
2022-08-27T23:57:08.247Z,98054.00
2022-08-27T23:59:35.337Z,98050.66
